createdAt,value
2023-02-19T00:01:48.797Z,1.67
2023-02-19T00:04:18.294Z,0.73
2023-02-19T00:06:46.413Z,1.60
2023-02-19T00:09:15.412Z,1.05
2023-02-19T00:11:42.804Z,0.88
2023-02-19T00:14:11.531Z,0.75
2023-02-19T00:16:39.747Z,2.53
2023-02-19T00:19:11.637Z,1.23
2023-02-19T00:21:38.310Z,0.90
2023-02-19T00:24:06.732Z,0.85
2023-02-19T00:26:34.061Z,0.75
2023-02-19T00:29:01.443Z,0.47
2023-02-19T00:31:33.596Z,0.93
2023-02-19T00:34:05.384Z,1.15
2023-02-19T00:36:35.746Z,0.63
2023-02-19T00:39:02.938Z,1.13
2023-02-19T00:41:30.477Z,0.50
2023-02-19T00:44:05.534Z,1.13
2023-02-19T00:46:37.864Z,1.83
2023-02-19T00:49:06.192Z,1.30
2023-02-19T00:51:36.141Z,0.82
2023-02-19T00:54:04.168Z,0.60
2023-02-19T00:56:30.894Z,0.90
2023-02-19T00:58:57.876Z,0.60
2023-02-19T01:01:24.521Z,1.38
2023-02-19T01:03:51.175Z,0.60
2023-02-19T01:06:19.441Z,0.80
2023-02-19T01:08:46.131Z,1.15
2023-02-19T01:11:13.413Z,0.82
2023-02-19T01:13:40.748Z,0.70
2023-02-19T01:16:19.279Z,0.90
2023-02-19T01:18:47.610Z,0.63
2023-02-19T01:21:17.408Z,0.70
2023-02-19T01:23:45.081Z,1.55
2023-02-19T01:26:14.913Z,0.68
2023-02-19T01:28:41.625Z,0.50
2023-02-19T01:31:13.392Z,0.73
2023-02-19T01:33:40.263Z,0.93
2023-02-19T01:36:07.563Z,0.80
2023-02-19T01:38:34.228Z,0.68
2023-02-19T01:41:05.880Z,0.60
2023-02-19T01:43:34.778Z,1.13
2023-02-19T01:46:02.418Z,1.08
2023-02-19T01:48:39.702Z,1.33
2023-02-19T01:51:11.135Z,0.60
2023-02-19T01:53:43.532Z,1.13
2023-02-19T01:56:11.467Z,0.98
2023-02-19T01:58:39.611Z,1.02
2023-02-19T02:01:08.515Z,0.80
2023-02-19T02:03:39.995Z,0.53
2023-02-19T02:06:19.013Z,0.50
2023-02-19T02:09:04.368Z,0.93
2023-02-19T02:11:31.137Z,1.17
2023-02-19T02:13:58.378Z,0.80
2023-02-19T02:16:25.008Z,0.98
2023-02-19T02:19:23.062Z,0.93
2023-02-19T02:22:12.688Z,0.35
2023-02-19T02:25:27.553Z,0.50
2023-02-19T02:28:06.802Z,0.60
2023-02-19T02:30:43.670Z,1.00
2023-02-19T02:33:35.466Z,0.70
2023-02-19T02:36:07.387Z,0.45
2023-02-19T02:38:38.754Z,0.85
2023-02-19T02:41:06.592Z,0.73
2023-02-19T02:43:33.354Z,0.70
2023-02-19T02:45:59.954Z,0.75
2023-02-19T02:48:45.019Z,0.73
2023-02-19T02:51:33.628Z,0.47
2023-02-19T02:54:38.338Z,0.32
2023-02-19T02:57:09.273Z,0.50
2023-02-19T02:59:39.938Z,0.50
2023-02-19T03:02:11.373Z,0.63
2023-02-19T03:05:24.239Z,1.00
2023-02-19T03:07:55.122Z,0.73
2023-02-19T03:10:33.931Z,0.50
2023-02-19T03:13:21.140Z,1.52
2023-02-19T03:16:24.406Z,0.50
2023-02-19T03:19:13.480Z,0.52
2023-02-19T03:21:43.186Z,0.88
2023-02-19T03:24:30.962Z,0.73
2023-02-19T03:27:04.374Z,0.43
2023-02-19T03:29:35.483Z,0.55
2023-02-19T03:32:08.636Z,0.68
2023-02-19T03:34:41.232Z,0.52
2023-02-19T03:37:24.451Z,0.60
2023-02-19T03:39:52.742Z,0.40
2023-02-19T03:42:49.351Z,0.47
2023-02-19T03:45:41.390Z,0.70
2023-02-19T03:48:25.200Z,0.47
2023-02-19T03:51:12.878Z,0.43
2023-02-19T03:53:52.820Z,0.50
2023-02-19T03:56:36.295Z,1.02
2023-02-19T03:59:13.258Z,0.40
2023-02-19T04:01:52.198Z,0.60
2023-02-19T04:04:28.265Z,0.65
2023-02-19T04:06:56.931Z,0.73
2023-02-19T04:09:27.234Z,0.45
2023-02-19T04:11:55.140Z,0.82
2023-02-19T04:14:29.137Z,0.32
2023-02-19T04:17:01.584Z,0.95
2023-02-19T04:19:30.719Z,0.70
2023-02-19T04:21:59.218Z,0.88
2023-02-19T04:24:33.122Z,0.40
2023-02-19T04:27:00.317Z,1.23
2023-02-19T04:29:26.957Z,0.55
2023-02-19T04:31:53.621Z,0.43
2023-02-19T04:34:20.313Z,0.43
2023-02-19T04:36:46.958Z,0.40
2023-02-19T04:39:13.597Z,0.45
2023-02-19T04:41:40.192Z,0.40
2023-02-19T04:44:06.749Z,0.70
2023-02-19T04:46:33.328Z,0.32
2023-02-19T04:48:59.877Z,1.17
2023-02-19T04:51:26.484Z,0.60
2023-02-19T04:53:53.184Z,0.55
2023-02-19T04:56:20.069Z,0.60
2023-02-19T04:58:46.629Z,0.50
2023-02-19T05:01:14.537Z,0.50
2023-02-19T05:03:41.417Z,0.43
2023-02-19T05:06:12.222Z,0.50
2023-02-19T05:08:38.949Z,0.80
2023-02-19T05:11:08.103Z,0.50
2023-02-19T05:13:36.172Z,0.63
2023-02-19T05:16:10.323Z,0.43
2023-02-19T05:18:37.102Z,0.65
2023-02-19T05:21:03.826Z,0.50
2023-02-19T05:23:30.412Z,0.90
2023-02-19T05:25:57.018Z,0.55
2023-02-19T05:28:28.694Z,0.35
2023-02-19T05:30:57.506Z,0.80
2023-02-19T05:33:25.843Z,0.40
2023-02-19T05:35:54.662Z,0.40
2023-02-19T05:38:22.724Z,0.40
2023-02-19T05:40:49.981Z,0.43
2023-02-19T05:43:17.087Z,1.00
2023-02-19T05:45:44.105Z,0.32
2023-02-19T05:48:11.510Z,0.45
2023-02-19T05:50:39.874Z,0.50
2023-02-19T05:53:06.766Z,0.50
2023-02-19T05:55:36.490Z,1.75
2023-02-19T05:58:03.717Z,0.45
2023-02-19T06:00:32.276Z,0.38
2023-02-19T06:02:58.931Z,0.40
2023-02-19T06:05:25.561Z,0.40
2023-02-19T06:07:52.158Z,0.40
2023-02-19T06:10:18.994Z,0.47
2023-02-19T06:12:45.794Z,0.63
2023-02-19T06:15:12.467Z,0.40
2023-02-19T06:17:39.425Z,0.40
2023-02-19T06:20:06.421Z,0.40
2023-02-19T06:22:32.999Z,0.43
2023-02-19T06:24:59.572Z,0.40
2023-02-19T06:27:26.234Z,0.40
2023-02-19T06:29:52.836Z,0.45
2023-02-19T06:32:19.504Z,0.30
2023-02-19T06:34:46.292Z,0.40
2023-02-19T06:37:13.119Z,0.30
2023-02-19T06:39:39.704Z,0.50
2023-02-19T06:42:06.285Z,0.40
2023-02-19T06:44:33.037Z,0.30
2023-02-19T06:46:59.685Z,0.40
2023-02-19T06:49:26.346Z,1.45
2023-02-19T06:51:52.915Z,0.30
2023-02-19T06:54:19.460Z,0.35
2023-02-19T06:56:47.142Z,0.40
2023-02-19T06:59:16.916Z,0.20
2023-02-19T07:01:44.702Z,0.40
2023-02-19T07:04:11.805Z,0.30
2023-02-19T07:06:38.559Z,0.30
2023-02-19T07:09:06.747Z,0.30
2023-02-19T07:11:35.196Z,0.50
2023-02-19T07:14:03.727Z,0.77
2023-02-19T07:16:30.446Z,0.52
2023-02-19T07:18:58.527Z,0.20
2023-02-19T07:21:25.646Z,0.35
2023-02-19T07:23:52.360Z,0.40
2023-02-19T07:26:20.304Z,0.30
2023-02-19T07:28:49.454Z,1.10
2023-02-19T07:31:18.013Z,0.35
2023-02-19T07:33:45.299Z,0.35
2023-02-19T07:36:12.461Z,0.32
2023-02-19T07:38:39.830Z,0.45
2023-02-19T07:41:07.389Z,0.50
2023-02-19T07:43:36.137Z,0.50
2023-02-19T07:46:07.401Z,1.27
2023-02-19T07:48:35.246Z,0.40
2023-02-19T07:51:03.500Z,0.43
2023-02-19T07:53:30.190Z,0.35
2023-02-19T07:56:01.903Z,0.80
2023-02-19T07:58:29.147Z,0.40
2023-02-19T08:00:55.889Z,0.30
2023-02-19T08:03:23.241Z,0.28
2023-02-19T08:05:51.383Z,0.30
2023-02-19T08:08:18.184Z,0.40
2023-02-19T08:11:03.402Z,0.60
2023-02-19T08:13:31.177Z,0.57
2023-02-19T08:16:17.073Z,4.40
2023-02-19T08:18:46.263Z,7.07
2023-02-19T08:21:13.993Z,14.63
2023-02-19T08:23:40.721Z,9.48
2023-02-19T08:26:07.545Z,13.88
2023-02-19T08:28:34.455Z,11.18
2023-02-19T08:31:04.039Z,10.68
2023-02-19T08:33:31.142Z,11.05
2023-02-19T08:36:04.497Z,11.95
2023-02-19T08:38:32.136Z,11.48
2023-02-19T08:40:58.970Z,9.30
2023-02-19T08:43:25.643Z,11.18
2023-02-19T08:45:54.391Z,12.48
2023-02-19T08:48:21.185Z,11.88
2023-02-19T08:50:57.509Z,10.95
2023-02-19T08:53:24.749Z,10.13
2023-02-19T08:55:52.426Z,11.68
2023-02-19T08:58:19.089Z,13.00
2023-02-19T09:00:45.712Z,9.55
2023-02-19T09:03:12.268Z,10.73
2023-02-19T09:05:39.641Z,10.32
2023-02-19T09:08:06.258Z,9.00
2023-02-19T09:10:32.858Z,6.78
2023-02-19T09:12:59.509Z,9.00
2023-02-19T09:15:26.185Z,7.60
2023-02-19T09:17:52.890Z,10.00
2023-02-19T09:20:19.558Z,8.50
2023-02-19T09:22:46.270Z,8.57
2023-02-19T09:25:12.952Z,8.75
2023-02-19T09:27:39.607Z,10.13
2023-02-19T09:30:06.790Z,11.15
2023-02-19T09:32:33.877Z,6.78
2023-02-19T09:35:00.494Z,7.85
2023-02-19T09:37:27.937Z,9.98
2023-02-19T09:39:55.225Z,10.00
2023-02-19T09:42:32.574Z,7.50
2023-02-19T09:45:01.260Z,9.55
2023-02-19T09:47:32.726Z,7.13
2023-02-19T09:50:05.078Z,7.45
2023-02-19T09:52:39.846Z,8.55
2023-02-19T09:55:19.939Z,8.90
2023-02-19T09:57:48.370Z,8.23
2023-02-19T10:00:27.091Z,9.13
2023-02-19T10:03:05.669Z,8.65
2023-02-19T10:05:33.897Z,7.78
2023-02-19T10:08:04.500Z,5.32
2023-02-19T10:10:35.043Z,7.25
2023-02-19T10:13:24.792Z,8.25
2023-02-19T10:15:54.643Z,5.70
2023-02-19T10:18:24.669Z,5.38
2023-02-19T10:20:52.897Z,8.85
2023-02-19T10:23:20.192Z,8.65
2023-02-19T10:25:56.995Z,5.57
2023-02-19T10:28:30.033Z,5.85
2023-02-19T10:30:59.089Z,6.75
2023-02-19T10:33:26.293Z,6.20
2023-02-19T10:35:58.818Z,5.93
2023-02-19T10:38:34.106Z,6.75
2023-02-19T10:41:07.646Z,8.57
2023-02-19T10:43:41.485Z,6.55
2023-02-19T10:46:24.152Z,5.32
2023-02-19T10:48:55.049Z,5.40
2023-02-19T10:51:30.293Z,6.00
2023-02-19T10:54:31.155Z,5.60
2023-02-19T10:57:18.952Z,5.65
2023-02-19T10:59:57.770Z,4.57
2023-02-19T11:02:25.838Z,6.40
2023-02-19T11:05:14.629Z,6.30
2023-02-19T11:07:56.248Z,6.25
2023-02-19T11:10:33.891Z,5.68
2023-02-19T11:13:03.407Z,5.57
2023-02-19T11:15:35.514Z,5.68
2023-02-19T11:18:08.405Z,6.70
2023-02-19T11:20:35.424Z,4.32
2023-02-19T11:23:14.893Z,6.10
2023-02-19T11:25:49.728Z,7.10
2023-02-19T11:28:36.973Z,5.40
2023-02-19T11:31:28.316Z,4.00
2023-02-19T11:34:29.780Z,4.30
2023-02-19T11:37:12.209Z,6.05
2023-02-19T11:39:41.021Z,3.50
2023-02-19T11:42:38.259Z,4.82
2023-02-19T11:45:50.570Z,4.70
2023-02-19T11:48:32.382Z,5.35
2023-02-19T11:51:20.069Z,5.88
2023-02-19T11:53:54.593Z,4.88
2023-02-19T11:56:33.994Z,4.85
2023-02-19T11:59:05.368Z,4.43
2023-02-19T12:02:06.418Z,4.90
2023-02-19T12:05:06.990Z,5.35
2023-02-19T12:07:51.834Z,4.85
2023-02-19T12:10:32.385Z,5.68
2023-02-19T12:13:11.302Z,5.03
2023-02-19T12:16:08.770Z,5.03
2023-02-19T12:19:06.076Z,5.55
2023-02-19T12:21:41.527Z,6.00
2023-02-19T12:24:14.245Z,5.47
2023-02-19T12:26:47.719Z,3.25
2023-02-19T12:29:35.821Z,4.80
2023-02-19T12:32:13.150Z,3.53
2023-02-19T12:35:04.234Z,3.92
2023-02-19T12:37:56.898Z,4.43
2023-02-19T12:41:02.743Z,3.85
2023-02-19T12:43:31.135Z,5.25
2023-02-19T12:45:58.145Z,3.70
2023-02-19T12:49:05.642Z,4.07
2023-02-19T12:51:38.130Z,3.13
2023-02-19T12:54:18.688Z,4.25
2023-02-19T12:57:00.446Z,4.65
2023-02-19T12:59:39.011Z,4.43
2023-02-19T13:02:30.596Z,3.72
2023-02-19T13:05:08.181Z,4.97
2023-02-19T13:07:46.727Z,2.67
2023-02-19T13:10:43.646Z,3.53
2023-02-19T13:13:19.168Z,3.30
2023-02-19T13:15:50.580Z,3.58
2023-02-19T13:18:26.219Z,2.83
2023-02-19T13:20:55.602Z,3.63
2023-02-19T13:24:00.496Z,3.60
2023-02-19T13:26:37.239Z,3.75
2023-02-19T13:29:33.378Z,2.75
2023-02-19T13:32:09.893Z,3.85
2023-02-19T13:34:58.418Z,3.30
2023-02-19T13:37:25.859Z,3.92
2023-02-19T13:39:54.530Z,5.72
2023-02-19T13:42:39.239Z,2.90
2023-02-19T13:45:06.966Z,5.25
2023-02-19T13:47:57.656Z,2.75
2023-02-19T13:50:33.041Z,4.57
2023-02-19T13:53:01.388Z,3.08
2023-02-19T13:55:47.053Z,4.18
2023-02-19T13:58:32.339Z,2.60
2023-02-19T14:01:44.028Z,3.92
2023-02-19T14:04:25.780Z,6.38
2023-02-19T14:07:04.372Z,2.22
2023-02-19T14:09:45.839Z,5.03
2023-02-19T14:12:16.274Z,3.75
2023-02-19T14:14:47.646Z,4.40
2023-02-19T14:17:27.872Z,3.55
2023-02-19T14:20:04.354Z,4.18
2023-02-19T14:22:51.871Z,2.70
2023-02-19T14:25:18.453Z,4.78
2023-02-19T14:27:45.668Z,3.00
2023-02-19T14:30:13.779Z,2.85
2023-02-19T14:32:43.593Z,3.33
2023-02-19T14:35:20.383Z,2.92
2023-02-19T14:37:48.794Z,2.78
2023-02-19T14:40:23.606Z,2.65
2023-02-19T14:42:55.399Z,2.28
2023-02-19T14:45:23.638Z,2.20
2023-02-19T14:47:52.706Z,4.05
2023-02-19T14:50:31.331Z,2.47
2023-02-19T14:53:07.536Z,2.90
2023-02-19T14:55:38.410Z,2.78
2023-02-19T14:58:08.533Z,4.00
2023-02-19T15:00:38.534Z,2.47
2023-02-19T15:03:06.604Z,3.60
2023-02-19T15:05:36.602Z,2.35
2023-02-19T15:08:15.675Z,2.75
2023-02-19T15:10:43.240Z,3.00
2023-02-19T15:13:17.301Z,1.85
2023-02-19T15:15:45.965Z,2.58
2023-02-19T15:18:20.081Z,2.70
2023-02-19T15:20:47.425Z,1.98
2023-02-19T15:23:22.698Z,4.00
2023-02-19T15:25:49.862Z,2.17
2023-02-19T15:28:25.584Z,3.05
2023-02-19T15:31:06.162Z,2.45
2023-02-19T15:33:32.873Z,1.90
2023-02-19T15:36:05.735Z,2.85
2023-02-19T15:38:35.573Z,2.92
2023-02-19T15:41:02.551Z,2.42
2023-02-19T15:43:44.613Z,2.95
2023-02-19T15:46:22.184Z,5.40
2023-02-19T15:49:08.817Z,3.05
2023-02-19T15:51:43.537Z,2.50
2023-02-19T15:54:27.555Z,2.40
2023-02-19T15:56:59.935Z,2.47
2023-02-19T15:59:36.830Z,2.53
2023-02-19T16:02:04.247Z,1.48
2023-02-19T16:04:31.025Z,1.55
2023-02-19T16:07:00.380Z,2.05
2023-02-19T16:09:36.216Z,1.85
2023-02-19T16:12:25.031Z,2.28
2023-02-19T16:14:51.682Z,2.60
2023-02-19T16:17:22.916Z,2.83
2023-02-19T16:19:54.353Z,2.42
2023-02-19T16:22:29.314Z,3.00
2023-02-19T16:24:58.628Z,3.20
2023-02-19T16:27:32.946Z,2.72
2023-02-19T16:30:08.267Z,2.03
2023-02-19T16:32:35.002Z,1.83
2023-02-19T16:35:01.842Z,2.72
2023-02-19T16:37:40.832Z,2.90
2023-02-19T16:40:07.576Z,1.65
2023-02-19T16:42:35.559Z,2.67
2023-02-19T16:45:02.515Z,1.73
2023-02-19T16:47:34.705Z,1.77
2023-02-19T16:50:04.108Z,5.22
2023-02-19T16:52:30.926Z,1.70
2023-02-19T16:54:57.660Z,2.92
2023-02-19T16:57:24.406Z,3.28
2023-02-19T16:59:51.068Z,3.25
2023-02-19T17:02:23.554Z,3.70
2023-02-19T17:04:51.819Z,4.22
2023-02-19T17:07:19.010Z,4.82
2023-02-19T17:09:45.638Z,3.45
2023-02-19T17:12:13.997Z,2.92
2023-02-19T17:14:40.761Z,3.67
2023-02-19T17:17:07.443Z,2.35
2023-02-19T17:19:34.335Z,3.08
2023-02-19T17:22:01.044Z,3.85
2023-02-19T17:24:27.647Z,4.40
2023-02-19T17:26:54.298Z,3.75
2023-02-19T17:29:20.970Z,3.35
2023-02-19T17:31:47.635Z,1.67
2023-02-19T17:34:14.266Z,2.72
2023-02-19T17:36:43.125Z,4.22
2023-02-19T17:39:15.130Z,3.33
2023-02-19T17:41:41.842Z,3.83
2023-02-19T17:44:08.507Z,3.42
2023-02-19T17:46:35.459Z,2.70
2023-02-19T17:49:02.078Z,2.03
2023-02-19T17:51:28.657Z,4.75
2023-02-19T17:53:55.364Z,3.15
2023-02-19T17:56:26.018Z,2.45
2023-02-19T17:58:53.770Z,4.30
2023-02-19T18:01:21.345Z,2.40
2023-02-19T18:03:47.982Z,2.40
2023-02-19T18:06:14.641Z,2.67
2023-02-19T18:08:51.150Z,4.03
2023-02-19T18:11:18.614Z,4.10
2023-02-19T18:13:45.913Z,2.85
2023-02-19T18:16:15.454Z,2.95
2023-02-19T18:18:42.835Z,1.55
2023-02-19T18:21:10.309Z,3.28
2023-02-19T18:23:37.453Z,2.22
2023-02-19T18:26:07.357Z,2.08
2023-02-19T18:28:34.759Z,2.90
2023-02-19T18:31:01.980Z,2.45
2023-02-19T18:33:28.690Z,3.13
2023-02-19T18:35:55.270Z,2.95
2023-02-19T18:38:22.258Z,1.67
2023-02-19T18:40:48.801Z,3.20
2023-02-19T18:43:15.361Z,3.88
2023-02-19T18:45:43.249Z,3.25
2023-02-19T18:48:09.904Z,1.85
2023-02-19T18:50:36.593Z,3.53
2023-02-19T18:53:03.402Z,4.78
2023-02-19T18:55:30.040Z,2.33
2023-02-19T18:57:56.642Z,1.95
2023-02-19T19:00:26.479Z,3.55
2023-02-19T19:02:59.883Z,2.25
2023-02-19T19:05:26.860Z,2.90
2023-02-19T19:07:55.520Z,3.45
2023-02-19T19:10:22.918Z,3.15
2023-02-19T19:12:49.684Z,1.88
2023-02-19T19:15:18.419Z,1.80
2023-02-19T19:17:45.688Z,1.80
2023-02-19T19:20:12.734Z,2.10
2023-02-19T19:22:39.626Z,1.75
2023-02-19T19:25:06.692Z,3.72
2023-02-19T19:27:33.449Z,2.38
2023-02-19T19:30:00.200Z,3.58
2023-02-19T19:32:26.958Z,2.67
2023-02-19T19:34:53.621Z,2.10
2023-02-19T19:37:20.161Z,2.53
2023-02-19T19:39:46.721Z,1.77
2023-02-19T19:42:13.374Z,2.38
2023-02-19T19:44:40.107Z,2.53
2023-02-19T19:47:06.656Z,2.53
2023-02-19T19:49:33.389Z,2.58
2023-02-19T19:52:01.023Z,1.85
2023-02-19T19:54:28.119Z,1.02
2023-02-19T19:56:54.870Z,1.23
2023-02-19T19:59:22.325Z,2.78
2023-02-19T20:01:51.209Z,1.65
2023-02-19T20:04:20.033Z,1.35
2023-02-19T20:06:46.823Z,4.07
2023-02-19T20:09:14.466Z,2.03
2023-02-19T20:11:48.909Z,1.75
2023-02-19T20:14:16.847Z,3.25
2023-02-19T20:16:44.832Z,2.20
2023-02-19T20:19:11.594Z,1.65
2023-02-19T20:21:38.222Z,2.47
2023-02-19T20:24:05.260Z,1.83
2023-02-19T20:26:32.830Z,2.30
2023-02-19T20:28:59.399Z,1.33
2023-02-19T20:31:26.478Z,2.33
2023-02-19T20:33:53.335Z,2.67
2023-02-19T20:36:20.635Z,0.85
2023-02-19T20:38:49.182Z,3.00
2023-02-19T20:41:16.013Z,2.63
2023-02-19T20:43:42.567Z,1.48
2023-02-19T20:46:09.253Z,2.08
2023-02-19T20:48:36.034Z,1.70
2023-02-19T20:51:02.968Z,1.15
2023-02-19T20:53:31.709Z,2.72
2023-02-19T20:55:58.718Z,3.25
2023-02-19T20:58:25.942Z,1.98
2023-02-19T21:00:54.142Z,1.15
2023-02-19T21:03:21.436Z,2.80
2023-02-19T21:05:48.112Z,1.58
2023-02-19T21:08:17.120Z,2.28
2023-02-19T21:10:45.442Z,1.92
2023-02-19T21:13:12.871Z,1.67
2023-02-19T21:15:39.508Z,2.92
2023-02-19T21:18:06.376Z,0.80
2023-02-19T21:20:33.190Z,1.20
2023-02-19T21:23:00.769Z,1.88
2023-02-19T21:25:27.691Z,1.77
2023-02-19T21:27:54.388Z,3.55
2023-02-19T21:30:21.069Z,1.10
2023-02-19T21:32:47.734Z,1.20
2023-02-19T21:35:14.356Z,1.27
2023-02-19T21:37:44.292Z,1.30
2023-02-19T21:40:12.131Z,1.13
2023-02-19T21:42:38.888Z,1.58
2023-02-19T21:45:05.929Z,0.70
2023-02-19T21:47:32.825Z,1.58
2023-02-19T21:49:59.381Z,1.17
2023-02-19T21:52:26.849Z,1.48
2023-02-19T21:54:53.548Z,1.13
2023-02-19T21:57:20.225Z,1.95
2023-02-19T21:59:46.757Z,1.33
2023-02-19T22:02:13.543Z,1.15
2023-02-19T22:04:40.153Z,1.05
2023-02-19T22:07:06.746Z,1.38
2023-02-19T22:09:33.401Z,1.15
2023-02-19T22:11:59.969Z,1.02
2023-02-19T22:14:26.515Z,2.97
2023-02-19T22:16:53.189Z,1.45
2023-02-19T22:19:19.929Z,1.75
2023-02-19T22:21:46.525Z,2.05
2023-02-19T22:24:19.134Z,1.98
2023-02-19T22:26:46.450Z,1.13
2023-02-19T22:29:15.086Z,1.10
2023-02-19T22:31:42.157Z,1.83
2023-02-19T22:34:09.324Z,1.85
2023-02-19T22:36:39.713Z,1.45
2023-02-19T22:39:08.774Z,1.92
2023-02-19T22:41:35.398Z,1.95
2023-02-19T22:44:02.122Z,1.60
2023-02-19T22:46:30.286Z,1.88
2023-02-19T22:48:58.082Z,1.08
2023-02-19T22:51:24.997Z,1.33
2023-02-19T22:53:54.210Z,1.58
2023-02-19T22:56:22.618Z,1.25
2023-02-19T22:58:49.316Z,1.63
2023-02-19T23:01:16.685Z,1.73
2023-02-19T23:03:46.921Z,1.20
2023-02-19T23:06:14.388Z,1.27
2023-02-19T23:08:42.306Z,1.17
2023-02-19T23:11:10.538Z,0.75
2023-02-19T23:13:37.113Z,1.88
2023-02-19T23:16:04.658Z,0.80
2023-02-19T23:18:31.350Z,1.42
2023-02-19T23:20:57.891Z,1.60
2023-02-19T23:23:24.482Z,1.40
2023-02-19T23:25:51.213Z,0.88
2023-02-19T23:28:17.782Z,1.60
2023-02-19T23:30:44.445Z,1.73
2023-02-19T23:33:11.026Z,0.75
2023-02-19T23:35:37.577Z,1.02
2023-02-19T23:38:04.293Z,0.98
2023-02-19T23:40:30.878Z,1.05
2023-02-19T23:42:57.498Z,0.85
2023-02-19T23:45:24.052Z,0.63
2023-02-19T23:47:50.598Z,1.23
2023-02-19T23:50:17.646Z,1.00
2023-02-19T23:52:44.218Z,1.27
2023-02-19T23:55:10.768Z,1.08
2023-02-19T23:57:37.374Z,1.38
